Time;durP1;ratioP1;P1;durP2;ratioP2;P2;SDS_P1;SDS_P2;PMS_P1;PMS_P2;Temp;Humidity;BMP_temperature;BMP_pressure;BME280_temperature;BME280_humidity;BME280_pressure;Samples;Min_cycle;Max_cycle;Signal;HPM_P1;HPM_P2
2021/05/08 00:00:24;;;;;;;4.03;3.73;;;3.50;99.90;;;;;;4946289;28;20959;-92
2021/05/08 00:02:51;;;;;;;5.47;5.03;;;3.50;99.90;;;;;;4934979;28;20202;-91
2021/05/08 00:05:18;;;;;;;5.93;5.30;;;3.40;99.90;;;;;;4958991;28;20444;-90
2021/05/08 00:07:44;;;;;;;6.27;4.93;;;3.40;99.90;;;;;;4941358;28;20464;-91
2021/05/08 00:10:15;;;;;;;4.67;4.03;;;3.40;99.90;;;;;;4942072;28;20485;-91
2021/05/08 00:12:41;;;;;;;3.90;3.60;;;3.30;99.90;;;;;;4950706;28;20451;-93
2021/05/08 00:15:10;;;;;;;4.70;3.73;;;3.20;99.90;;;;;;4971342;28;20905;-92
2021/05/08 00:17:36;;;;;;;3.70;3.40;;;3.10;99.90;;;;;;4947336;28;20798;-91
2021/05/08 00:20:03;;;;;;;4.70;4.30;;;3.00;99.90;;;;;;4938472;28;20457;-90
2021/05/08 00:22:29;;;;;;;4.20;3.47;;;3.00;99.90;;;;;;4942162;28;20570;-90
2021/05/08 00:24:55;;;;;;;3.83;3.53;;;3.00;99.90;;;;;;4941805;28;20480;-91
2021/05/08 00:27:20;;;;;;;4.23;3.77;;;2.90;99.90;;;;;;4945422;28;20192;-92
2021/05/08 00:29:52;;;;;;;3.97;3.67;;;2.80;99.90;;;;;;4939991;28;20195;-92
2021/05/08 00:35:06;;;;;;;4.63;4.23;;;2.80;99.90;;;;;;4957129;28;20512;-91
2021/05/08 00:37:31;;;;;;;3.90;3.60;;;2.80;99.90;;;;;;4926129;28;20475;-92
2021/05/08 00:40:21;;;;;;;3.63;3.33;;;2.80;99.90;;;;;;4943754;28;20457;-92
2021/05/08 00:42:47;;;;;;;3.23;3.00;;;2.70;99.90;;;;;;4959751;28;20276;-90
2021/05/08 00:45:13;;;;;;;3.30;3.10;;;2.60;99.90;;;;;;4941912;28;20534;-90
2021/05/08 00:47:48;;;;;;;3.90;3.47;;;2.70;99.90;;;;;;4943249;28;20190;-88
2021/05/08 00:50:16;;;;;;;5.53;5.03;;;2.60;99.90;;;;;;4937466;28;20463;-89
2021/05/08 00:52:42;;;;;;;5.37;4.90;;;2.60;99.90;;;;;;4945670;28;20453;-89
2021/05/08 00:55:08;;;;;;;6.40;5.30;;;2.60;99.90;;;;;;4944835;28;20488;-89
2021/05/08 00:57:34;;;;;;;6.67;5.70;;;2.50;99.90;;;;;;4944689;28;20187;-88
2021/05/08 01:00:01;;;;;;;6.70;5.83;;;2.50;99.90;;;;;;4938982;28;20810;-89
2021/05/08 01:02:26;;;;;;;5.20;4.70;;;2.40;99.90;;;;;;4945787;28;20472;-88
2021/05/08 01:04:52;;;;;;;7.77;5.67;;;2.50;99.90;;;;;;4941189;28;20450;-89
2021/05/08 01:07:19;;;;;;;6.90;5.97;;;2.50;99.90;;;;;;4946904;28;20229;-89
2021/05/08 01:09:46;;;;;;;5.60;5.10;;;2.60;99.90;;;;;;4944408;28;20194;-89
2021/05/08 01:12:12;;;;;;;4.87;4.47;;;2.70;99.90;;;;;;4944067;28;20441;-89
2021/05/08 01:14:38;;;;;;;5.13;4.63;;;2.80;99.90;;;;;;4943051;28;20476;-88
2021/05/08 01:17:05;;;;;;;5.03;4.63;;;2.90;99.90;;;;;;4946738;28;21038;-89
2021/05/08 01:19:32;;;;;;;5.20;4.70;;;2.90;99.90;;;;;;4944109;28;20450;-88
2021/05/08 01:21:59;;;;;;;6.00;5.50;;;3.00;99.90;;;;;;4947598;28;20588;-88
2021/05/08 01:24:25;;;;;;;5.67;4.77;;;3.00;99.90;;;;;;4943842;28;20485;-88
2021/05/08 01:26:50;;;;;;;4.73;4.33;;;3.10;99.90;;;;;;4944258;28;20518;-88
2021/05/08 01:29:16;;;;;;;5.30;4.90;;;3.00;99.90;;;;;;4940858;28;20194;-89
2021/05/08 01:31:42;;;;;;;4.77;4.37;;;3.10;99.90;;;;;;4940465;28;20290;-89
2021/05/08 01:34:08;;;;;;;5.10;4.60;;;3.00;99.90;;;;;;4943299;28;20225;-90
2021/05/08 01:36:34;;;;;;;5.03;4.50;;;3.00;99.90;;;;;;4942134;28;20201;-89
2021/05/08 01:39:02;;;;;;;6.00;5.40;;;3.00;99.90;;;;;;4947889;28;20522;-89
2021/05/08 01:41:27;;;;;;;5.13;4.57;;;2.90;99.90;;;;;;4947805;28;20504;-89
2021/05/08 01:43:53;;;;;;;4.30;3.90;;;2.80;99.90;;;;;;4965264;28;20736;-88
2021/05/08 01:46:19;;;;;;;6.20;4.30;;;2.80;99.90;;;;;;4945324;28;20210;-88
2021/05/08 01:48:45;;;;;;;4.53;4.13;;;2.60;99.90;;;;;;4978137;28;20548;-88
2021/05/08 01:51:10;;;;;;;4.73;4.33;;;2.60;99.90;;;;;;4947014;28;20907;-88
2021/05/08 01:53:36;;;;;;;4.63;4.23;;;2.50;99.90;;;;;;4950101;28;20221;-88
2021/05/08 01:56:02;;;;;;;4.80;4.40;;;2.60;99.90;;;;;;4948221;28;20225;-88
2021/05/08 01:58:28;;;;;;;4.70;4.07;;;2.60;99.90;;;;;;4950502;28;20194;-88
2021/05/08 02:00:54;;;;;;;5.10;3.90;;;2.50;99.90;;;;;;4947698;28;20459;-88
2021/05/08 02:03:20;;;;;;;4.60;4.20;;;2.40;99.90;;;;;;4944889;28;20187;-89
2021/05/08 02:05:47;;;;;;;4.30;3.90;;;2.40;99.90;;;;;;4947757;28;20450;-89
2021/05/08 02:08:14;;;;;;;4.27;3.87;;;2.30;99.90;;;;;;4945005;28;20469;-89
2021/05/08 02:10:42;;;;;;;5.37;4.57;;;2.20;99.90;;;;;;4946223;28;20448;-88
2021/05/08 02:13:09;;;;;;;8.07;4.83;;;2.10;99.90;;;;;;4945374;28;20450;-88
2021/05/08 02:15:38;;;;;;;4.03;3.70;;;2.10;99.90;;;;;;4950034;28;20464;-88
2021/05/08 02:18:04;;;;;;;4.70;4.30;;;2.10;99.90;;;;;;4946649;28;20453;-88
2021/05/08 02:20:33;;;;;;;6.00;4.23;;;2.20;99.90;;;;;;4943318;28;20877;-88
2021/05/08 02:23:01;;;;;;;5.00;4.50;;;2.30;99.90;;;;;;4948232;28;20613;-88
2021/05/08 02:25:28;;;;;;;4.10;3.80;;;2.20;99.90;;;;;;4943304;28;20592;-89
2021/05/08 02:27:54;;;;;;;4.70;4.17;;;2.10;99.90;;;;;;4950899;28;20452;-88
2021/05/08 02:30:34;;;;;;;4.67;4.27;;;2.20;99.90;;;;;;4946477;28;20442;-89
2021/05/08 02:33:02;;;;;;;5.00;4.50;;;2.30;99.90;;;;;;4958825;28;20751;-89
2021/05/08 02:35:29;;;;;;;4.67;4.07;;;2.30;99.90;;;;;;4956862;28;20457;-89
2021/05/08 02:38:07;;;;;;;4.77;4.37;;;2.40;99.90;;;;;;4947399;28;20836;-89
2021/05/08 02:40:37;;;;;;;5.03;4.50;;;2.30;99.90;;;;;;4958859;28;20484;-87
2021/05/08 02:43:04;;;;;;;6.20;4.90;;;2.20;99.90;;;;;;4960266;28;20490;-87
2021/05/08 02:45:30;;;;;;;4.43;4.13;;;2.10;99.90;;;;;;4943704;28;20922;-88
2021/05/08 02:47:56;;;;;;;6.83;4.83;;;2.00;99.90;;;;;;4947979;28;20752;-87
2021/05/08 02:50:22;;;;;;;4.57;4.17;;;2.00;99.90;;;;;;4960219;28;20445;-88
2021/05/08 02:52:48;;;;;;;4.53;4.23;;;2.00;99.90;;;;;;4945932;28;20641;-88
2021/05/08 02:55:16;;;;;;;5.20;4.80;;;1.90;99.90;;;;;;4964445;28;20492;-88
2021/05/08 02:57:44;;;;;;;4.60;4.20;;;1.80;99.90;;;;;;4944354;28;20441;-88
2021/05/08 03:00:16;;;;;;;5.63;5.13;;;1.80;99.90;;;;;;4944986;28;20477;-89
2021/05/08 03:02:44;;;;;;;5.07;4.60;;;1.70;99.90;;;;;;4947468;28;20575;-88
2021/05/08 03:05:11;;;;;;;4.77;4.37;;;1.80;99.90;;;;;;4941469;28;20445;-89
2021/05/08 03:07:39;;;;;;;4.20;3.90;;;1.70;99.90;;;;;;4956005;28;20450;-89
2021/05/08 03:10:09;;;;;;;4.60;4.20;;;1.80;99.90;;;;;;4941102;28;20453;-89
2021/05/08 03:12:35;;;;;;;5.37;4.80;;;1.80;99.90;;;;;;4943207;28;20484;-89
2021/05/08 03:15:13;;;;;;;4.97;4.10;;;1.70;99.90;;;;;;4944523;28;20468;-89
2021/05/08 03:17:39;;;;;;;5.00;4.60;;;1.80;99.90;;;;;;4961459;28;20529;-89
2021/05/08 03:20:05;;;;;;;5.67;5.17;;;1.80;99.90;;;;;;4942706;28;20540;-89
2021/05/08 03:22:31;;;;;;;5.30;4.77;;;1.80;99.90;;;;;;4944252;28;20438;-89
2021/05/08 03:24:56;;;;;;;4.33;3.90;;;1.90;99.90;;;;;;4944388;28;20854;-89
2021/05/08 03:27:22;;;;;;;4.63;4.23;;;1.90;99.90;;;;;;4946689;28;20183;-89
2021/05/08 03:29:48;;;;;;;5.20;4.23;;;1.80;99.90;;;;;;4944881;28;20202;-89
2021/05/08 03:32:14;;;;;;;5.10;4.60;;;1.80;99.90;;;;;;4944203;28;20183;-89
2021/05/08 03:34:40;;;;;;;5.93;4.90;;;1.80;99.90;;;;;;4940888;28;21016;-89
2021/05/08 03:37:05;;;;;;;5.83;4.23;;;1.80;99.90;;;;;;4946105;28;20221;-88
2021/05/08 03:39:31;;;;;;;4.30;3.90;;;1.70;99.90;;;;;;4944872;28;20644;-88
2021/05/08 03:41:57;;;;;;;4.67;4.27;;;1.60;99.90;;;;;;4943583;28;20556;-88
2021/05/08 03:44:22;;;;;;;4.60;4.20;;;1.60;99.90;;;;;;4941435;28;20233;-88
2021/05/08 03:46:48;;;;;;;5.50;4.57;;;1.70;99.90;;;;;;4942941;28;20202;-89
2021/05/08 03:49:13;;;;;;;4.97;4.47;;;1.80;99.90;;;;;;4942497;28;20198;-88
2021/05/08 03:51:39;;;;;;;4.80;4.23;;;1.70;99.90;;;;;;4942170;28;20658;-88
2021/05/08 03:54:05;;;;;;;5.47;4.40;;;1.70;99.90;;;;;;4946888;28;20633;-88
2021/05/08 03:56:31;;;;;;;5.33;4.87;;;1.80;99.90;;;;;;4945749;28;20198;-88
2021/05/08 03:58:57;;;;;;;5.00;3.80;;;1.90;99.90;;;;;;4940219;28;20205;-88
2021/05/08 04:01:25;;;;;;;8.60;4.20;;;1.90;99.90;;;;;;4937908;28;20444;-88
2021/05/08 04:03:51;;;;;;;5.00;4.60;;;2.00;99.90;;;;;;4942055;28;20195;-88
2021/05/08 04:06:16;;;;;;;4.80;4.40;;;1.90;99.90;;;;;;4940827;28;20459;-88
2021/05/08 04:08:42;;;;;;;4.90;4.40;;;2.00;99.90;;;;;;4944412;28;20200;-88
2021/05/08 04:11:08;;;;;;;4.70;3.60;;;2.00;99.90;;;;;;4942480;28;20894;-89
2021/05/08 04:13:59;;;;;;;4.17;3.77;;;2.00;99.90;;;;;;4941142;28;20589;-89
2021/05/08 04:16:25;;;;;;;4.67;4.10;;;1.90;99.90;;;;;;4969365;28;20593;-88
2021/05/08 04:21:32;;;;;;;7.50;4.50;;;2.10;99.90;;;;;;4957936;28;20200;-93
2021/05/08 04:24:00;;;;;;;4.53;4.20;;;2.20;99.90;;;;;;4943448;28;20456;-90
2021/05/08 04:26:29;;;;;;;4.70;4.30;;;2.40;99.90;;;;;;4944356;28;20991;-94
2021/05/08 04:28:58;;;;;;;5.63;4.90;;;2.50;99.90;;;;;;4977688;28;20209;-90
2021/05/08 04:31:43;;;;;;;5.80;5.30;;;2.40;99.90;;;;;;4944220;28;20474;-92
2021/05/08 04:34:08;;;;;;;7.47;6.67;;;2.60;99.90;;;;;;4970955;28;22062;-92
2021/05/08 04:36:35;;;;;;;7.37;6.67;;;2.60;99.90;;;;;;4950057;28;20469;-94
2021/05/08 04:39:02;;;;;;;10.50;7.50;;;2.60;99.90;;;;;;4952126;28;20846;-96
2021/05/08 04:41:29;;;;;;;9.87;7.23;;;2.60;99.90;;;;;;4966892;28;20255;-95
2021/05/08 04:43:55;;;;;;;8.20;7.37;;;2.50;99.90;;;;;;4954210;28;20481;-93
2021/05/08 04:46:23;;;;;;;9.37;6.87;;;2.40;99.90;;;;;;4952947;28;20608;-96
2021/05/08 04:49:12;;;;;;;6.57;5.97;;;2.40;99.90;;;;;;4975615;28;20242;-96
2021/05/08 04:59:21;;;;;;;5.33;4.83;;;2.50;99.90;;;;;;4962122;28;20992;-95
2021/05/08 05:01:47;;;;;;;11.23;9.03;;;2.50;99.90;;;;;;4983517;28;20456;-96
2021/05/08 05:04:19;;;;;;;4.90;4.50;;;2.50;99.90;;;;;;4998442;23;20203;-96
2021/05/08 07:27:03;;;;;;;4.17;3.87;;;9.80;98.00;;;;;;5896036;23;20498;-96
2021/05/08 08:10:59;;;;;;;4.20;3.90;;;12.30;95.20;;;;;;5205040;23;20496;-96
2021/05/08 08:13:28;;;;;;;3.80;3.50;;;12.60;96.60;;;;;;4959965;28;20990;-95
2021/05/08 08:16:04;;;;;;;3.90;3.50;;;12.70;94.90;;;;;;4965251;28;20460;-96
2021/05/08 08:18:31;;;;;;;4.67;3.37;;;12.70;95.30;;;;;;4973918;28;21209;-96
2021/05/08 08:20:57;;;;;;;3.40;3.20;;;12.90;95.80;;;;;;4982620;28;20475;-96
2021/05/08 08:23:22;;;;;;;4.07;3.30;;;13.00;96.50;;;;;;4972902;28;20445;-96
2021/05/08 08:25:49;;;;;;;4.27;3.67;;;13.20;93.50;;;;;;4973258;28;20292;-96
2021/05/08 08:28:15;;;;;;;3.50;3.20;;;13.30;93.30;;;;;;4974482;28;20190;-96
2021/05/08 08:30:41;;;;;;;3.83;3.50;;;13.30;92.30;;;;;;4977102;28;20428;-96
2021/05/08 08:33:07;;;;;;;3.53;3.23;;;13.50;93.70;;;;;;4964439;28;20186;-94
2021/05/08 08:35:35;;;;;;;3.87;3.57;;;13.70;91.40;;;;;;4956713;28;20194;-96
2021/05/08 08:38:01;;;;;;;3.30;3.10;;;13.30;92.00;;;;;;4976549;28;20435;-96
2021/05/08 08:40:28;;;;;;;3.63;3.33;;;13.20;92.20;;;;;;4984399;28;20190;-95
2021/05/08 08:42:54;;;;;;;3.30;3.10;;;12.90;92.90;;;;;;4966180;28;20457;-95
2021/05/08 08:45:19;;;;;;;2.90;2.70;;;13.00;91.20;;;;;;4968875;28;20457;-92
2021/05/08 08:47:45;;;;;;;2.90;2.70;;;13.20;91.60;;;;;;4957452;28;20977;-93
2021/05/08 08:50:13;;;;;;;4.57;3.77;;;13.30;91.00;;;;;;4949741;28;20191;-92
2021/05/08 08:52:39;;;;;;;3.47;3.17;;;13.50;92.60;;;;;;4959569;28;20448;-91
2021/05/08 08:55:07;;;;;;;2.60;2.40;;;13.80;92.70;;;;;;4959764;28;20916;-90
2021/05/08 08:57:43;;;;;;;2.90;2.10;;;14.20;88.50;;;;;;4959831;28;20441;-90
2021/05/08 09:00:14;;;;;;;2.67;2.27;;;14.20;78.80;;;;;;4954870;28;20989;-89
2021/05/08 09:02:42;;;;;;;2.10;1.80;;;14.30;76.50;;;;;;4955905;28;20945;-90
2021/05/08 09:05:12;;;;;;;1.90;1.80;;;14.50;73.80;;;;;;4972669;28;20441;-91
2021/05/08 09:07:45;;;;;;;2.07;1.90;;;14.50;72.00;;;;;;4956184;28;20445;-90
2021/05/08 09:10:31;;;;;;;1.60;1.50;;;14.60;69.40;;;;;;4958229;28;20495;-90
2021/05/08 09:13:05;;;;;;;1.87;1.77;;;14.60;67.50;;;;;;4956539;28;20492;-90
2021/05/08 09:15:39;;;;;;;2.10;1.90;;;15.00;65.60;;;;;;4952303;28;20480;-89
2021/05/08 09:18:08;;;;;;;2.00;1.80;;;15.00;66.90;;;;;;4955996;28;20455;-90
2021/05/08 09:20:47;;;;;;;3.10;2.03;;;14.60;67.90;;;;;;4955143;28;20434;-90
2021/05/08 09:23:21;;;;;;;1.90;1.80;;;14.70;65.90;;;;;;4954168;28;20472;-90
2021/05/08 09:26:17;;;;;;;2.30;2.10;;;15.10;65.40;;;;;;4987756;28;20447;-90
2021/05/08 09:33:56;;;;;;;2.83;2.10;;;15.00;63.60;;;;;;5232292;23;20779;-96
2021/05/08 09:36:22;;;;;;;2.40;2.00;;;15.40;65.50;;;;;;4951908;28;20453;-91
2021/05/08 09:38:48;;;;;;;3.17;2.30;;;15.40;63.40;;;;;;4943480;28;21155;-93
2021/05/08 09:41:15;;;;;;;2.57;2.37;;;15.60;68.20;;;;;;4957103;28;20538;-91
2021/05/08 09:43:42;;;;;;;2.60;1.93;;;15.50;64.40;;;;;;4948809;28;20199;-90
2021/05/08 09:46:22;;;;;;;2.77;2.57;;;15.70;64.80;;;;;;4955361;28;20461;-92
2021/05/08 09:48:47;;;;;;;2.20;2.00;;;15.80;64.10;;;;;;4955528;28;20457;-92
2021/05/08 09:52:15;;;;;;;2.80;2.27;;;16.00;60.50;;;;;;4944875;28;20456;-92
2021/05/08 09:54:41;;;;;;;2.40;2.20;;;16.00;63.40;;;;;;4858433;29;20293;-90
2021/05/08 09:57:19;;;;;;;2.07;1.97;;;16.20;62.60;;;;;;4963536;28;20441;-92
2021/05/08 09:59:47;;;;;;;2.20;2.10;;;16.40;62.30;;;;;;4950014;28;20253;-92
2021/05/08 10:02:19;;;;;;;2.23;2.00;;;16.30;61.70;;;;;;4945549;28;20482;-94
2021/05/08 10:04:50;;;;;;;2.77;2.20;;;15.90;58.80;;;;;;4966588;28;20452;-93
2021/05/08 10:07:25;;;;;;;2.23;2.10;;;15.90;61.10;;;;;;4959284;28;20465;-93
2021/05/08 10:10:19;;;;;;;3.57;2.00;;;16.10;61.80;;;;;;4963576;28;21719;-93
2021/05/08 10:12:45;;;;;;;2.20;2.10;;;16.50;60.10;;;;;;4950401;28;20441;-91
2021/05/08 10:15:11;;;;;;;1.90;1.80;;;16.30;60.80;;;;;;4961020;28;20848;-92
2021/05/08 10:17:39;;;;;;;2.00;1.90;;;16.00;57.70;;;;;;4964073;28;20441;-91
2021/05/08 10:20:13;;;;;;;2.00;1.80;;;15.80;57.60;;;;;;4960319;28;20842;-94
2021/05/08 10:22:58;;;;;;;2.53;1.87;;;15.60;58.50;;;;;;4975712;28;20437;-96
2021/05/08 10:25:27;;;;;;;1.90;1.80;;;15.50;58.70;;;;;;4971226;28;20464;-95
2021/05/08 10:27:56;;;;;;;2.10;1.90;;;15.90;62.10;;;;;;4963986;28;20528;-95
2021/05/08 10:30:31;;;;;;;3.80;1.90;;;16.10;59.80;;;;;;4973338;28;20584;-94
2021/05/08 10:32:58;;;;;;;2.30;1.77;;;16.20;59.70;;;;;;4946355;28;20216;-93
2021/05/08 10:35:50;;;;;;;2.03;1.87;;;16.30;59.90;;;;;;4972511;28;20560;-94
2021/05/08 10:38:23;;;;;;;2.80;2.13;;;16.70;59.60;;;;;;4946948;28;20472;-94
2021/05/08 10:40:51;;;;;;;1.63;1.53;;;16.70;56.30;;;;;;4947058;28;20454;-92
2021/05/08 10:43:54;;;;;;;1.63;1.53;;;16.40;52.70;;;;;;4963475;28;20968;-93
2021/05/08 10:46:21;;;;;;;2.30;1.40;;;16.20;53.20;;;;;;4961538;28;21277;-91
2021/05/08 10:49:06;;;;;;;1.77;1.60;;;16.60;54.00;;;;;;4946812;28;20939;-91
2021/05/08 10:51:57;;;;;;;4.77;2.00;;;17.00;54.20;;;;;;4958530;28;20450;-93
2021/05/08 10:54:42;;;;;;;2.00;1.80;;;16.80;50.70;;;;;;4960921;28;20489;-95
2021/05/08 10:57:18;;;;;;;1.53;1.43;;;17.20;51.80;;;;;;4959604;28;20453;-92
2021/05/08 11:00:04;;;;;;;3.60;2.10;;;17.70;51.30;;;;;;4958430;28;20774;-92
2021/05/08 11:02:42;;;;;;;1.53;1.43;;;18.60;51.90;;;;;;4961561;28;20825;-90
2021/05/08 11:05:33;;;;;;;4.00;2.00;;;18.50;49.50;;;;;;4960582;28;20441;-91
2021/05/08 11:07:59;;;;;;;2.00;1.80;;;18.50;49.60;;;;;;4952290;28;20750;-93
2021/05/08 11:10:34;;;;;;;1.80;1.70;;;18.50;49.00;;;;;;4960193;28;20449;-95
2021/05/08 11:13:17;;;;;;;1.80;1.70;;;18.60;48.70;;;;;;4945414;28;20476;-94
2021/05/08 11:18:30;;;;;;;2.63;1.70;;;18.90;49.10;;;;;;4967020;28;20457;-95
2021/05/08 11:21:01;;;;;;;2.37;2.03;;;18.20;51.40;;;;;;4981553;28;20859;-94
2021/05/08 11:23:46;;;;;;;2.33;1.73;;;18.70;50.60;;;;;;4944975;28;20442;-95
2021/05/08 11:26:29;;;;;;;2.07;1.87;;;18.90;49.30;;;;;;4950611;28;22616;-92
2021/05/08 11:29:01;;;;;;;1.80;1.70;;;19.20;49.60;;;;;;4959353;28;20437;-89
2021/05/08 11:31:28;;;;;;;1.97;1.80;;;19.20;49.50;;;;;;4967124;28;20453;-88
2021/05/08 11:34:07;;;;;;;2.00;1.90;;;19.30;48.10;;;;;;4953759;28;21017;-89
2021/05/08 11:36:58;;;;;;;2.57;2.30;;;19.80;48.90;;;;;;4960482;28;20472;-90
2021/05/08 11:39:28;;;;;;;2.50;2.30;;;19.40;47.50;;;;;;4959887;28;20497;-89
2021/05/08 11:42:10;;;;;;;2.50;2.30;;;19.40;48.60;;;;;;4957805;28;20467;-89
2021/05/08 11:44:37;;;;;;;1.70;1.60;;;19.30;47.90;;;;;;4940667;28;20517;-88
2021/05/08 11:47:05;;;;;;;3.03;2.83;;;19.30;48.90;;;;;;4953409;28;20855;-90
2021/05/08 11:49:39;;;;;;;2.00;1.90;;;19.40;48.30;;;;;;4957622;28;20458;-92
2021/05/08 11:52:07;;;;;;;2.23;2.10;;;19.00;48.60;;;;;;4969676;28;20453;-90
2021/05/08 11:54:42;;;;;;;1.97;1.77;;;19.40;48.30;;;;;;4945481;28;20613;-90
2021/05/08 11:57:19;;;;;;;3.20;2.30;;;19.20;47.60;;;;;;4943251;28;20463;-88
2021/05/08 11:59:44;;;;;;;2.37;2.13;;;19.20;49.40;;;;;;4961908;28;20512;-91
2021/05/08 12:02:15;;;;;;;2.50;1.90;;;19.20;49.10;;;;;;4950765;28;20865;-92
2021/05/08 12:04:48;;;;;;;2.47;2.20;;;19.20;47.90;;;;;;4967278;28;20246;-92
2021/05/08 12:07:17;;;;;;;2.23;2.03;;;19.20;47.10;;;;;;4977771;28;20477;-91
2021/05/08 12:09:42;;;;;;;1.70;1.60;;;19.70;47.50;;;;;;4962725;28;20527;-91
2021/05/08 12:12:19;;;;;;;1.70;1.60;;;19.80;46.50;;;;;;4949226;28;20434;-90
2021/05/08 12:14:48;;;;;;;2.40;2.20;;;20.40;45.70;;;;;;4960460;28;20263;-92
2021/05/08 12:17:20;;;;;;;2.53;2.30;;;19.70;45.70;;;;;;4944994;28;20532;-92
2021/05/08 12:19:52;;;;;;;2.20;2.10;;;19.50;46.50;;;;;;4954509;28;20484;-90
2021/05/08 12:22:19;;;;;;;2.67;1.87;;;20.00;46.00;;;;;;4949565;28;20514;-91
2021/05/08 12:24:49;;;;;;;2.23;2.10;;;20.40;46.20;;;;;;4959098;28;20625;-92
2021/05/08 12:27:18;;;;;;;2.20;2.00;;;20.40;47.80;;;;;;4947937;28;20430;-91
2021/05/08 12:32:31;;;;;;;2.53;1.93;;;20.00;47.70;;;;;;4963553;28;20442;-91
2021/05/08 12:34:57;;;;;;;1.87;1.77;;;20.30;45.80;;;;;;4946832;28;20481;-90
2021/05/08 12:37:23;;;;;;;2.83;1.77;;;20.40;46.00;;;;;;4963588;28;20433;-92
2021/05/08 12:39:49;;;;;;;3.10;1.83;;;20.30;46.10;;;;;;4962204;28;20535;-91
2021/05/08 12:42:49;;;;;;;5.17;1.80;;;20.40;47.00;;;;;;4963217;28;20449;-92
2021/05/08 12:45:14;;;;;;;3.27;2.70;;;20.80;47.10;;;;;;4965790;28;20890;-91
2021/05/08 12:47:47;;;;;;;1.80;1.70;;;20.40;44.20;;;;;;4946696;28;20513;-92
2021/05/08 12:50:26;;;;;;;2.10;1.90;;;20.80;47.60;;;;;;4962331;28;20442;-92
2021/05/08 12:53:00;;;;;;;2.90;2.20;;;20.80;50.30;;;;;;4949794;28;20425;-92
2021/05/08 12:55:31;;;;;;;2.20;2.10;;;20.60;51.50;;;;;;4962167;28;20484;-92
2021/05/08 12:58:33;;;;;;;2.10;2.00;;;21.20;46.70;;;;;;4950495;28;20444;-92
2021/05/08 13:01:00;;;;;;;3.30;2.30;;;21.70;45.40;;;;;;4952323;28;20495;-92
2021/05/08 13:03:51;;;;;;;6.20;3.40;;;21.20;45.60;;;;;;4947378;28;20842;-92
2021/05/08 13:06:26;;;;;;;5.57;2.70;;;20.70;49.80;;;;;;4959048;28;20577;-90
2021/05/08 13:08:53;;;;;;;2.20;2.00;;;20.20;47.10;;;;;;4970422;28;20969;-92
2021/05/08 13:11:37;;;;;;;6.13;3.10;;;20.00;46.50;;;;;;4964122;28;20901;-90
2021/05/08 13:14:25;;;;;;;2.83;2.00;;;20.10;46.60;;;;;;4944827;28;20484;-90
2021/05/08 13:16:55;;;;;;;12.37;4.50;;;19.50;46.00;;;;;;4949787;28;20418;-90
2021/05/08 13:19:26;;;;;;;1.73;1.63;;;19.60;47.40;;;;;;4964542;28;20493;-91
2021/05/08 13:21:53;;;;;;;2.10;1.90;;;19.50;46.30;;;;;;4946600;28;20638;-92
2021/05/08 13:24:33;;;;;;;2.20;2.03;;;19.60;48.20;;;;;;4946574;28;20442;-91
2021/05/08 13:27:03;;;;;;;1.90;1.80;;;19.90;48.10;;;;;;4947168;28;21081;-92
2021/05/08 13:29:31;;;;;;;2.03;1.93;;;20.80;46.20;;;;;;4946468;28;20525;-91
2021/05/08 13:31:59;;;;;;;1.90;1.80;;;21.90;44.60;;;;;;4956912;28;20977;-92
2021/05/08 13:37:28;;;;;;;2.33;2.13;;;23.00;48.20;;;;;;4967230;28;20555;-92
2021/05/08 13:39:54;;;;;;;3.87;2.10;;;25.30;46.30;;;;;;4948488;28;20449;-91
2021/05/08 13:42:19;;;;;;;5.90;2.57;;;26.10;43.30;;;;;;4952615;28;20429;-93
2021/05/08 13:44:45;;;;;;;1.93;1.83;;;26.10;43.80;;;;;;4951404;28;20641;-91
2021/05/08 13:47:22;;;;;;;2.10;1.90;;;27.40;37.30;;;;;;4966220;28;20186;-91
2021/05/08 13:49:56;;;;;;;2.67;2.20;;;28.90;35.70;;;;;;4968128;28;20445;-91
2021/05/08 13:52:23;;;;;;;1.93;1.83;;;31.00;29.80;;;;;;4954048;28;20432;-91
2021/05/08 13:54:50;;;;;;;3.57;2.03;;;31.70;28.20;;;;;;4948354;28;20824;-91
2021/05/08 13:57:16;;;;;;;2.07;1.70;;;30.90;29.30;;;;;;4949567;28;20807;-91
2021/05/08 13:59:45;;;;;;;3.20;2.13;;;30.70;28.00;;;;;;4956076;28;20442;-93
2021/05/08 14:02:19;;;;;;;5.10;2.00;;;29.60;31.00;;;;;;4963468;28;20643;-92
2021/05/08 14:04:46;;;;;;;2.20;2.00;;;28.10;33.80;;;;;;4959436;28;20546;-90
2021/05/08 14:10:34;;;;;;;2.93;2.20;;;25.70;33.10;;;;;;4968477;28;20508;-95
2021/05/08 14:12:59;;;;;;;2.53;1.90;;;24.90;35.00;;;;;;4946854;28;20486;-92
2021/05/08 14:39:19;;;;;;;2.30;1.70;;;31.70;27.40;;;;;;4956056;28;20493;-90
2021/05/08 14:41:54;;;;;;;4.33;1.83;;;29.00;27.90;;;;;;4960176;28;20517;-89
2021/05/08 14:44:21;;;;;;;2.30;2.10;;;28.00;29.00;;;;;;4958068;28;20500;-89
2021/05/08 14:46:46;;;;;;;2.13;1.90;;;27.10;32.00;;;;;;4942721;28;20434;-91
2021/05/08 14:49:12;;;;;;;2.30;2.10;;;25.70;32.60;;;;;;4935632;28;20586;-90
2021/05/08 14:51:38;;;;;;;1.87;1.77;;;24.60;33.10;;;;;;4954071;28;20213;-90
2021/05/08 14:54:04;;;;;;;2.80;1.67;;;24.40;35.40;;;;;;4945914;28;20214;-90
2021/05/08 14:56:37;;;;;;;1.80;1.70;;;24.70;35.70;;;;;;4931401;28;20870;-89
2021/05/08 14:59:03;;;;;;;1.60;1.50;;;24.60;33.20;;;;;;4923856;28;20451;-88
2021/05/08 15:01:28;;;;;;;1.70;1.60;;;25.10;33.20;;;;;;4933645;28;20445;-88
2021/05/08 15:03:54;;;;;;;1.70;1.60;;;25.50;35.90;;;;;;4942578;28;20470;-90
2021/05/08 15:06:20;;;;;;;1.60;1.50;;;25.40;32.80;;;;;;4924424;28;20194;-87
2021/05/08 15:08:47;;;;;;;1.70;1.50;;;25.60;33.40;;;;;;4923930;28;20340;-91
2021/05/08 15:11:13;;;;;;;1.90;1.80;;;26.80;32.10;;;;;;4923106;28;20215;-87
2021/05/08 15:13:38;;;;;;;1.40;1.30;;;30.30;29.70;;;;;;4943482;28;20663;-88
2021/05/08 15:16:14;;;;;;;1.80;1.60;;;32.70;26.30;;;;;;4959921;28;20222;-90
2021/05/08 15:18:40;;;;;;;1.80;1.70;;;35.60;24.40;;;;;;4938819;28;20235;-88
2021/05/08 15:21:06;;;;;;;2.90;1.80;;;35.20;22.50;;;;;;4938623;28;20979;-86
2021/05/08 15:23:31;;;;;;;1.20;1.10;;;34.20;24.00;;;;;;4921660;29;21831;-87
2021/05/08 15:25:57;;;;;;;1.57;1.47;;;34.10;23.50;;;;;;4939149;28;20178;-88
2021/05/08 15:28:26;;;;;;;1.50;1.40;;;33.00;24.20;;;;;;4932428;28;20198;-87
2021/05/08 15:30:52;;;;;;;1.23;1.20;;;34.20;23.80;;;;;;4939314;28;20469;-87
2021/05/08 15:33:18;;;;;;;1.63;1.27;;;34.00;23.40;;;;;;4936390;28;20480;-86
2021/05/08 15:35:43;;;;;;;1.40;1.30;;;32.70;24.10;;;;;;4955341;28;20253;-87
2021/05/08 15:38:33;;;;;;;4.37;1.90;;;32.90;24.30;;;;;;4931418;28;20222;-87
2021/05/08 15:41:14;;;;;;;1.40;1.20;;;33.80;24.70;;;;;;4951307;28;20203;-87
2021/05/08 15:43:40;;;;;;;1.40;1.30;;;34.10;23.70;;;;;;4962459;28;20446;-88
2021/05/08 15:46:07;;;;;;;1.40;1.30;;;32.10;25.10;;;;;;4937784;28;20456;-91
2021/05/08 15:51:16;;;;;;;1.50;1.40;;;28.90;28.00;;;;;;4946099;28;20948;-88
2021/05/08 15:53:44;;;;;;;1.47;1.37;;;28.60;27.40;;;;;;4948931;28;20458;-88
2021/05/08 15:56:10;;;;;;;1.53;1.43;;;27.60;28.30;;;;;;4942432;28;20536;-87
2021/05/08 15:58:36;;;;;;;1.60;1.50;;;27.00;29.00;;;;;;4939697;28;20532;-86
2021/05/08 16:01:02;;;;;;;2.60;2.40;;;26.60;29.70;;;;;;4943335;28;20209;-88
2021/05/08 16:03:30;;;;;;;1.50;1.40;;;26.90;29.60;;;;;;4941500;28;20182;-88
2021/05/08 16:05:56;;;;;;;2.20;2.10;;;27.30;29.50;;;;;;4938360;28;20456;-87
2021/05/08 16:08:22;;;;;;;2.00;1.50;;;26.10;30.70;;;;;;4940954;28;20835;-87
2021/05/08 16:10:49;;;;;;;1.27;1.20;;;24.80;32.50;;;;;;4939057;28;20205;-86
2021/05/08 16:13:15;;;;;;;2.43;1.63;;;23.00;34.60;;;;;;4938350;28;20449;-86
2021/05/08 16:15:44;;;;;;;1.50;1.40;;;22.10;36.20;;;;;;4931906;28;20458;-86
2021/05/08 16:18:13;;;;;;;1.90;1.57;;;21.20;37.00;;;;;;4940582;28;20553;-86
2021/05/08 16:21:06;;;;;;;1.40;1.30;;;20.90;38.50;;;;;;4937783;28;20454;-91
2021/05/08 16:23:31;;;;;;;1.47;1.37;;;20.70;39.80;;;;;;4939282;28;20450;-85
2021/05/08 16:25:57;;;;;;;2.10;1.90;;;20.70;39.80;;;;;;4934663;28;20516;-84
2021/05/08 16:28:23;;;;;;;1.50;1.40;;;20.60;40.80;;;;;;4951702;28;20533;-87
2021/05/08 16:30:50;;;;;;;1.27;1.17;;;20.60;40.50;;;;;;4958160;28;20225;-87
2021/05/08 16:33:16;;;;;;;1.83;1.50;;;20.70;40.60;;;;;;4939327;28;20871;-91
2021/05/08 16:35:44;;;;;;;2.37;2.17;;;20.90;40.80;;;;;;4940387;28;20186;-93
2021/05/08 16:38:11;;;;;;;1.57;1.30;;;21.40;40.40;;;;;;4945029;28;20857;-93
2021/05/08 16:40:36;;;;;;;1.03;1.03;;;22.10;39.20;;;;;;4941051;28;20449;-92
2021/05/08 16:43:02;;;;;;;2.03;1.43;;;23.00;38.80;;;;;;4943096;28;20791;-93
2021/05/08 16:45:30;;;;;;;1.27;1.17;;;23.90;37.20;;;;;;4943428;28;20214;-93
2021/05/08 16:48:04;;;;;;;1.20;1.10;;;23.50;37.30;;;;;;4962111;28;20190;-93
2021/05/08 16:50:29;;;;;;;2.33;1.10;;;22.30;39.00;;;;;;4933446;28;20501;-95
2021/05/08 16:52:55;;;;;;;1.40;1.10;;;21.40;40.10;;;;;;4957801;28;20433;-92
2021/05/08 16:55:41;;;;;;;1.60;1.50;;;21.20;41.20;;;;;;4964437;28;20201;-95
2021/05/08 16:58:12;;;;;;;1.40;1.30;;;21.20;41.30;;;;;;4969006;28;20253;-96
2021/05/08 17:00:37;;;;;;;1.80;1.70;;;22.60;40.80;;;;;;4941742;28;20972;-88
2021/05/08 17:03:03;;;;;;;1.57;1.47;;;24.90;37.00;;;;;;4965608;28;20497;-85